sensor_id;sensor_type;location;lat;lon;timestamp;temperature;humidity
21298;DHT22;10808;48.010;11.326;2023-07-30T00:00:22;20.00;99.90
21298;DHT22;10808;48.010;11.326;2023-07-30T00:02:48;19.90;99.90
21298;DHT22;10808;48.010;11.326;2023-07-30T00:05:14;19.90;99.90
21298;DHT22;10808;48.010;11.326;2023-07-30T00:07:40;19.80;99.90
21298;DHT22;10808;48.010;11.326;2023-07-30T00:10:07;19.80;99.90
21298;DHT22;10808;48.010;11.326;2023-07-30T00:12:33;19.70;99.90
21298;DHT22;10808;48.010;11.326;2023-07-30T00:14:59;19.70;99.90
21298;DHT22;10808;48.010;11.326;2023-07-30T00:17:25;19.70;99.90
21298;DHT22;10808;48.010;11.326;2023-07-30T00:19:51;19.70;99.90
21298;DHT22;10808;48.010;11.326;2023-07-30T00:22:17;19.80;99.90
21298;DHT22;10808;48.010;11.326;2023-07-30T00:24:43;19.70;99.90
21298;DHT22;10808;48.010;11.326;2023-07-30T00:27:09;19.80;99.90
21298;DHT22;10808;48.010;11.326;2023-07-30T00:29:35;19.80;99.90
21298;DHT22;10808;48.010;11.326;2023-07-30T00:32:01;19.70;99.90
21298;DHT22;10808;48.010;11.326;2023-07-30T00:34:27;19.70;99.90
21298;DHT22;10808;48.010;11.326;2023-07-30T00:36:53;19.70;99.90
21298;DHT22;10808;48.010;11.326;2023-07-30T00:39:19;19.70;99.90
21298;DHT22;10808;48.010;11.326;2023-07-30T00:41:45;19.70;99.90
21298;DHT22;10808;48.010;11.326;2023-07-30T00:44:11;19.60;99.90
21298;DHT22;10808;48.010;11.326;2023-07-30T00:46:37;19.70;99.90
21298;DHT22;10808;48.010;11.326;2023-07-30T00:49:04;19.60;99.90
21298;DHT22;10808;48.010;11.326;2023-07-30T00:51:31;19.60;99.90
21298;DHT22;10808;48.010;11.326;2023-07-30T00:53:59;19.60;99.90
21298;DHT22;10808;48.010;11.326;2023-07-30T00:56:26;19.50;99.90
21298;DHT22;10808;48.010;11.326;2023-07-30T00:58:52;19.50;99.90
21298;DHT22;10808;48.010;11.326;2023-07-30T01:01:18;19.50;99.90
21298;DHT22;10808;48.010;11.326;2023-07-30T01:03:44;19.50;99.90
21298;DHT22;10808;48.010;11.326;2023-07-30T01:06:10;19.50;99.90
21298;DHT22;10808;48.010;11.326;2023-07-30T01:08:36;19.40;99.90
21298;DHT22;10808;48.010;11.326;2023-07-30T01:11:04;19.40;99.90
21298;DHT22;10808;48.010;11.326;2023-07-30T01:13:32;19.40;99.90
21298;DHT22;10808;48.010;11.326;2023-07-30T01:15:59;19.40;99.90
21298;DHT22;10808;48.010;11.326;2023-07-30T01:18:25;19.30;99.90
21298;DHT22;10808;48.010;11.326;2023-07-30T01:20:57;19.30;99.90
21298;DHT22;10808;48.010;11.326;2023-07-30T01:23:24;19.30;99.90
21298;DHT22;10808;48.010;11.326;2023-07-30T01:26:43;19.30;99.90
21298;DHT22;10808;48.010;11.326;2023-07-30T01:28:48;19.20;99.90
21298;DHT22;10808;48.010;11.326;2023-07-30T01:31:16;19.20;99.90
21298;DHT22;10808;48.010;11.326;2023-07-30T01:33:43;19.10;99.90
21298;DHT22;10808;48.010;11.326;2023-07-30T01:36:14;19.10;99.90
21298;DHT22;10808;48.010;11.326;2023-07-30T01:38:42;19.20;99.90
21298;DHT22;10808;48.010;11.326;2023-07-30T01:41:09;19.20;99.90
21298;DHT22;10808;48.010;11.326;2023-07-30T01:43:35;19.20;99.90
21298;DHT22;10808;48.010;11.326;2023-07-30T01:46:01;19.20;99.90
21298;DHT22;10808;48.010;11.326;2023-07-30T01:48:27;19.20;99.90
21298;DHT22;10808;48.010;11.326;2023-07-30T01:50:53;19.20;99.90
21298;DHT22;10808;48.010;11.326;2023-07-30T01:53:19;19.20;99.90
21298;DHT22;10808;48.010;11.326;2023-07-30T01:55:45;19.20;99.90
21298;DHT22;10808;48.010;11.326;2023-07-30T01:58:14;19.20;99.90
21298;DHT22;10808;48.010;11.326;2023-07-30T02:00:40;19.20;99.90
21298;DHT22;10808;48.010;11.326;2023-07-30T02:03:07;19.20;99.90
21298;DHT22;10808;48.010;11.326;2023-07-30T02:05:33;19.30;99.90
21298;DHT22;10808;48.010;11.326;2023-07-30T02:07:59;19.30;99.90
21298;DHT22;10808;48.010;11.326;2023-07-30T02:10:25;19.30;99.90
21298;DHT22;10808;48.010;11.326;2023-07-30T02:12:51;19.30;99.90
21298;DHT22;10808;48.010;11.326;2023-07-30T02:15:17;19.30;99.90
21298;DHT22;10808;48.010;11.326;2023-07-30T02:17:43;19.20;99.90
21298;DHT22;10808;48.010;11.326;2023-07-30T02:20:09;19.10;99.90
21298;DHT22;10808;48.010;11.326;2023-07-30T02:22:35;19.10;99.90
21298;DHT22;10808;48.010;11.326;2023-07-30T02:25:01;19.10;99.90
21298;DHT22;10808;48.010;11.326;2023-07-30T02:27:27;19.10;99.90
21298;DHT22;10808;48.010;11.326;2023-07-30T02:29:53;19.10;99.90
21298;DHT22;10808;48.010;11.326;2023-07-30T02:32:19;19.10;99.90
21298;DHT22;10808;48.010;11.326;2023-07-30T02:34:46;19.10;99.90
21298;DHT22;10808;48.010;11.326;2023-07-30T02:37:12;19.10;99.90
21298;DHT22;10808;48.010;11.326;2023-07-30T02:39:38;19.10;99.90
21298;DHT22;10808;48.010;11.326;2023-07-30T02:42:05;19.10;99.90
21298;DHT22;10808;48.010;11.326;2023-07-30T02:44:31;19.10;99.90
21298;DHT22;10808;48.010;11.326;2023-07-30T02:46:57;19.10;99.90
21298;DHT22;10808;48.010;11.326;2023-07-30T02:49:23;19.20;99.90
21298;DHT22;10808;48.010;11.326;2023-07-30T02:51:49;19.20;99.90
21298;DHT22;10808;48.010;11.326;2023-07-30T02:54:15;19.20;99.90
21298;DHT22;10808;48.010;11.326;2023-07-30T02:56:46;19.20;99.90
21298;DHT22;10808;48.010;11.326;2023-07-30T02:59:12;19.20;99.90
21298;DHT22;10808;48.010;11.326;2023-07-30T03:01:38;19.20;99.90
21298;DHT22;10808;48.010;11.326;2023-07-30T03:04:04;19.20;99.90
21298;DHT22;10808;48.010;11.326;2023-07-30T03:06:31;19.20;99.90
21298;DHT22;10808;48.010;11.326;2023-07-30T03:08:57;19.30;99.90
21298;DHT22;10808;48.010;11.326;2023-07-30T03:11:23;19.20;99.90
21298;DHT22;10808;48.010;11.326;2023-07-30T03:13:49;19.20;99.90
21298;DHT22;10808;48.010;11.326;2023-07-30T03:16:15;19.20;99.90
21298;DHT22;10808;48.010;11.326;2023-07-30T03:18:41;19.20;99.90
21298;DHT22;10808;48.010;11.326;2023-07-30T03:21:07;19.30;99.90
21298;DHT22;10808;48.010;11.326;2023-07-30T03:23:33;19.30;99.90
21298;DHT22;10808;48.010;11.326;2023-07-30T03:25:59;19.30;99.90
21298;DHT22;10808;48.010;11.326;2023-07-30T03:28:26;19.30;99.90
21298;DHT22;10808;48.010;11.326;2023-07-30T03:30:52;19.30;99.90
21298;DHT22;10808;48.010;11.326;2023-07-30T03:33:18;19.20;99.90
21298;DHT22;10808;48.010;11.326;2023-07-30T03:35:44;19.20;99.90
21298;DHT22;10808;48.010;11.326;2023-07-30T03:38:10;19.20;99.90
21298;DHT22;10808;48.010;11.326;2023-07-30T03:40:36;19.20;99.90
21298;DHT22;10808;48.010;11.326;2023-07-30T03:43:02;19.20;99.90
21298;DHT22;10808;48.010;11.326;2023-07-30T03:45:28;19.20;99.90
21298;DHT22;10808;48.010;11.326;2023-07-30T03:47:54;19.30;99.90
21298;DHT22;10808;48.010;11.326;2023-07-30T03:50:20;19.30;99.90
21298;DHT22;10808;48.010;11.326;2023-07-30T03:52:46;19.30;99.90
21298;DHT22;10808;48.010;11.326;2023-07-30T03:55:12;19.30;99.90
21298;DHT22;10808;48.010;11.326;2023-07-30T03:57:38;19.30;99.90
21298;DHT22;10808;48.010;11.326;2023-07-30T04:00:05;19.30;99.90
21298;DHT22;10808;48.010;11.326;2023-07-30T04:02:31;19.30;99.90
21298;DHT22;10808;48.010;11.326;2023-07-30T04:04:57;19.30;99.90
21298;DHT22;10808;48.010;11.326;2023-07-30T04:07:23;19.30;99.90
21298;DHT22;10808;48.010;11.326;2023-07-30T04:09:49;19.30;99.90
21298;DHT22;10808;48.010;11.326;2023-07-30T04:12:15;19.30;99.90
21298;DHT22;10808;48.010;11.326;2023-07-30T04:14:41;19.30;99.90
21298;DHT22;10808;48.010;11.326;2023-07-30T04:17:07;19.30;99.90
21298;DHT22;10808;48.010;11.326;2023-07-30T04:19:33;19.30;99.90
21298;DHT22;10808;48.010;11.326;2023-07-30T04:21:59;19.20;99.90
21298;DHT22;10808;48.010;11.326;2023-07-30T04:24:25;19.20;99.90
21298;DHT22;10808;48.010;11.326;2023-07-30T04:26:52;19.20;99.90
21298;DHT22;10808;48.010;11.326;2023-07-30T04:29:18;19.20;99.90
21298;DHT22;10808;48.010;11.326;2023-07-30T04:31:44;19.20;99.90
21298;DHT22;10808;48.010;11.326;2023-07-30T04:34:10;19.20;99.90
21298;DHT22;10808;48.010;11.326;2023-07-30T04:36:36;19.20;99.90
21298;DHT22;10808;48.010;11.326;2023-07-30T04:39:02;19.20;99.90
21298;DHT22;10808;48.010;11.326;2023-07-30T04:41:28;19.20;99.90
21298;DHT22;10808;48.010;11.326;2023-07-30T04:43:54;19.20;99.90
21298;DHT22;10808;48.010;11.326;2023-07-30T04:46:20;19.20;99.90
21298;DHT22;10808;48.010;11.326;2023-07-30T04:48:46;19.20;99.90
21298;DHT22;10808;48.010;11.326;2023-07-30T04:51:12;19.20;99.90
21298;DHT22;10808;48.010;11.326;2023-07-30T04:53:38;19.20;99.90
21298;DHT22;10808;48.010;11.326;2023-07-30T04:56:04;19.30;99.90
21298;DHT22;10808;48.010;11.326;2023-07-30T04:58:30;19.20;99.90
21298;DHT22;10808;48.010;11.326;2023-07-30T05:00:56;19.20;99.90
21298;DHT22;10808;48.010;11.326;2023-07-30T05:03:22;19.20;99.90
21298;DHT22;10808;48.010;11.326;2023-07-30T05:05:48;19.20;99.90
21298;DHT22;10808;48.010;11.326;2023-07-30T05:08:14;19.30;99.90
21298;DHT22;10808;48.010;11.326;2023-07-30T05:10:40;19.30;99.90
21298;DHT22;10808;48.010;11.326;2023-07-30T05:13:06;19.40;99.90
21298;DHT22;10808;48.010;11.326;2023-07-30T05:15:34;19.40;99.90
21298;DHT22;10808;48.010;11.326;2023-07-30T05:18:00;19.50;99.90
21298;DHT22;10808;48.010;11.326;2023-07-30T05:20:26;19.60;99.90
21298;DHT22;10808;48.010;11.326;2023-07-30T05:22:52;19.60;99.90
21298;DHT22;10808;48.010;11.326;2023-07-30T05:25:18;19.70;99.90
21298;DHT22;10808;48.010;11.326;2023-07-30T05:27:44;19.70;99.90
21298;DHT22;10808;48.010;11.326;2023-07-30T05:30:10;19.70;99.90
21298;DHT22;10808;48.010;11.326;2023-07-30T05:32:37;19.80;99.90
21298;DHT22;10808;48.010;11.326;2023-07-30T05:35:03;19.90;99.90
21298;DHT22;10808;48.010;11.326;2023-07-30T05:37:29;20.00;99.90
21298;DHT22;10808;48.010;11.326;2023-07-30T05:39:55;20.10;99.90
21298;DHT22;10808;48.010;11.326;2023-07-30T05:42:21;20.10;99.90
21298;DHT22;10808;48.010;11.326;2023-07-30T05:44:47;20.20;99.90
21298;DHT22;10808;48.010;11.326;2023-07-30T05:47:13;20.30;99.90
21298;DHT22;10808;48.010;11.326;2023-07-30T05:49:39;20.40;99.90
21298;DHT22;10808;48.010;11.326;2023-07-30T05:52:05;20.40;99.90
21298;DHT22;10808;48.010;11.326;2023-07-30T05:54:31;20.50;99.90
21298;DHT22;10808;48.010;11.326;2023-07-30T05:56:57;20.50;99.90
21298;DHT22;10808;48.010;11.326;2023-07-30T05:59:23;20.50;99.90
21298;DHT22;10808;48.010;11.326;2023-07-30T06:01:49;20.60;99.90
21298;DHT22;10808;48.010;11.326;2023-07-30T06:04:15;20.70;99.90
21298;DHT22;10808;48.010;11.326;2023-07-30T06:06:41;20.80;99.90
21298;DHT22;10808;48.010;11.326;2023-07-30T06:09:07;20.90;99.90
21298;DHT22;10808;48.010;11.326;2023-07-30T06:11:33;21.00;99.90
21298;DHT22;10808;48.010;11.326;2023-07-30T06:13:59;21.10;99.90
21298;DHT22;10808;48.010;11.326;2023-07-30T06:16:25;21.20;99.90
21298;DHT22;10808;48.010;11.326;2023-07-30T06:18:51;21.30;99.90
21298;DHT22;10808;48.010;11.326;2023-07-30T06:21:17;21.40;99.90
21298;DHT22;10808;48.010;11.326;2023-07-30T06:23:43;21.50;99.90
21298;DHT22;10808;48.010;11.326;2023-07-30T06:26:09;21.60;99.90
21298;DHT22;10808;48.010;11.326;2023-07-30T06:28:35;21.70;99.90
21298;DHT22;10808;48.010;11.326;2023-07-30T06:31:02;21.80;99.90
21298;DHT22;10808;48.010;11.326;2023-07-30T06:33:28;21.90;99.90
21298;DHT22;10808;48.010;11.326;2023-07-30T06:35:54;22.00;99.90
21298;DHT22;10808;48.010;11.326;2023-07-30T06:38:20;22.10;99.90
21298;DHT22;10808;48.010;11.326;2023-07-30T06:40:47;22.20;99.90
21298;DHT22;10808;48.010;11.326;2023-07-30T06:43:13;22.30;99.90
21298;DHT22;10808;48.010;11.326;2023-07-30T06:45:39;22.40;99.90
21298;DHT22;10808;48.010;11.326;2023-07-30T06:48:05;22.60;99.90
21298;DHT22;10808;48.010;11.326;2023-07-30T06:50:31;22.60;99.90
21298;DHT22;10808;48.010;11.326;2023-07-30T06:52:57;22.60;99.90
21298;DHT22;10808;48.010;11.326;2023-07-30T06:55:23;22.70;99.90
21298;DHT22;10808;48.010;11.326;2023-07-30T06:57:49;22.80;99.90
21298;DHT22;10808;48.010;11.326;2023-07-30T07:00:15;22.80;99.90
21298;DHT22;10808;48.010;11.326;2023-07-30T07:02:50;22.90;99.90
21298;DHT22;10808;48.010;11.326;2023-07-30T07:05:16;23.00;99.90
21298;DHT22;10808;48.010;11.326;2023-07-30T07:07:42;23.10;99.90
21298;DHT22;10808;48.010;11.326;2023-07-30T07:10:08;23.20;99.90
21298;DHT22;10808;48.010;11.326;2023-07-30T07:12:37;23.20;99.90
21298;DHT22;10808;48.010;11.326;2023-07-30T07:15:04;23.40;99.90
21298;DHT22;10808;48.010;11.326;2023-07-30T07:17:30;23.70;99.90
21298;DHT22;10808;48.010;11.326;2023-07-30T07:19:57;23.70;99.90
21298;DHT22;10808;48.010;11.326;2023-07-30T07:22:23;23.70;99.90
21298;DHT22;10808;48.010;11.326;2023-07-30T07:24:51;23.70;99.90
21298;DHT22;10808;48.010;11.326;2023-07-30T07:27:19;23.60;99.90
21298;DHT22;10808;48.010;11.326;2023-07-30T07:29:45;23.60;99.90
21298;DHT22;10808;48.010;11.326;2023-07-30T07:32:11;23.70;99.90
21298;DHT22;10808;48.010;11.326;2023-07-30T07:34:37;23.80;99.90
21298;DHT22;10808;48.010;11.326;2023-07-30T07:37:03;24.00;99.90
21298;DHT22;10808;48.010;11.326;2023-07-30T07:39:29;24.00;99.90
21298;DHT22;10808;48.010;11.326;2023-07-30T07:41:55;24.10;99.90
21298;DHT22;10808;48.010;11.326;2023-07-30T07:44:21;24.10;99.90
21298;DHT22;10808;48.010;11.326;2023-07-30T07:46:48;24.30;99.90
21298;DHT22;10808;48.010;11.326;2023-07-30T07:49:14;24.30;99.90
21298;DHT22;10808;48.010;11.326;2023-07-30T07:51:40;24.30;99.90
21298;DHT22;10808;48.010;11.326;2023-07-30T07:54:06;24.40;99.90
21298;DHT22;10808;48.010;11.326;2023-07-30T07:56:32;24.40;99.90
21298;DHT22;10808;48.010;11.326;2023-07-30T07:58:58;24.20;99.90
21298;DHT22;10808;48.010;11.326;2023-07-30T08:01:25;24.20;99.90
21298;DHT22;10808;48.010;11.326;2023-07-30T08:03:51;24.30;99.90
21298;DHT22;10808;48.010;11.326;2023-07-30T08:06:17;24.40;99.90
21298;DHT22;10808;48.010;11.326;2023-07-30T08:08:43;24.70;99.90
21298;DHT22;10808;48.010;11.326;2023-07-30T08:11:09;24.90;99.90
21298;DHT22;10808;48.010;11.326;2023-07-30T08:13:35;24.90;99.90
21298;DHT22;10808;48.010;11.326;2023-07-30T08:16:01;24.70;99.90
21298;DHT22;10808;48.010;11.326;2023-07-30T08:18:28;24.50;99.90
21298;DHT22;10808;48.010;11.326;2023-07-30T08:20:54;24.40;99.90
21298;DHT22;10808;48.010;11.326;2023-07-30T08:23:20;24.20;99.90
21298;DHT22;10808;48.010;11.326;2023-07-30T08:25:47;24.40;99.90
21298;DHT22;10808;48.010;11.326;2023-07-30T08:28:14;24.70;99.90
21298;DHT22;10808;48.010;11.326;2023-07-30T08:30:40;24.90;99.90
21298;DHT22;10808;48.010;11.326;2023-07-30T08:33:06;25.10;99.90
21298;DHT22;10808;48.010;11.326;2023-07-30T08:35:32;25.30;99.90
21298;DHT22;10808;48.010;11.326;2023-07-30T08:37:58;25.40;99.90
21298;DHT22;10808;48.010;11.326;2023-07-30T08:40:24;25.60;99.90
21298;DHT22;10808;48.010;11.326;2023-07-30T08:42:51;25.60;99.50
21298;DHT22;10808;48.010;11.326;2023-07-30T08:45:18;25.60;99.70
21298;DHT22;10808;48.010;11.326;2023-07-30T08:47:45;25.60;99.90
21298;DHT22;10808;48.010;11.326;2023-07-30T08:50:12;25.40;99.60
21298;DHT22;10808;48.010;11.326;2023-07-30T08:52:38;25.20;99.90
21298;DHT22;10808;48.010;11.326;2023-07-30T08:55:05;25.10;99.90
21298;DHT22;10808;48.010;11.326;2023-07-30T08:57:33;25.20;99.90
21298;DHT22;10808;48.010;11.326;2023-07-30T09:00:05;25.40;99.90
21298;DHT22;10808;48.010;11.326;2023-07-30T09:02:39;25.60;99.90
21298;DHT22;10808;48.010;11.326;2023-07-30T09:05:07;25.80;99.30
21298;DHT22;10808;48.010;11.326;2023-07-30T09:07:33;26.00;99.10
21298;DHT22;10808;48.010;11.326;2023-07-30T09:09:59;26.10;99.00
21298;DHT22;10808;48.010;11.326;2023-07-30T09:12:30;26.30;98.60
21298;DHT22;10808;48.010;11.326;2023-07-30T09:14:56;26.40;98.50
21298;DHT22;10808;48.010;11.326;2023-07-30T09:17:23;26.40;98.40
21298;DHT22;10808;48.010;11.326;2023-07-30T09:19:49;26.60;98.80
21298;DHT22;10808;48.010;11.326;2023-07-30T09:22:27;26.70;97.00
21298;DHT22;10808;48.010;11.326;2023-07-30T09:24:56;26.60;96.60
21298;DHT22;10808;48.010;11.326;2023-07-30T09:27:25;26.60;96.50
21298;DHT22;10808;48.010;11.326;2023-07-30T09:29:53;26.70;97.20
21298;DHT22;10808;48.010;11.326;2023-07-30T09:32:20;26.80;96.90
21298;DHT22;10808;48.010;11.326;2023-07-30T09:34:46;27.00;96.90
21298;DHT22;10808;48.010;11.326;2023-07-30T09:37:14;26.90;96.10
21298;DHT22;10808;48.010;11.326;2023-07-30T09:39:40;26.90;96.40
21298;DHT22;10808;48.010;11.326;2023-07-30T09:42:06;27.10;95.90
21298;DHT22;10808;48.010;11.326;2023-07-30T09:44:33;27.30;95.60
21298;DHT22;10808;48.010;11.326;2023-07-30T09:47:01;27.40;94.80
21298;DHT22;10808;48.010;11.326;2023-07-30T09:49:31;27.40;94.60
21298;DHT22;10808;48.010;11.326;2023-07-30T09:51:57;27.10;94.70
21298;DHT22;10808;48.010;11.326;2023-07-30T09:54:24;27.10;94.70
21298;DHT22;10808;48.010;11.326;2023-07-30T09:56:50;27.20;95.10
21298;DHT22;10808;48.010;11.326;2023-07-30T09:59:16;27.10;94.70
21298;DHT22;10808;48.010;11.326;2023-07-30T10:01:45;27.00;94.40
21298;DHT22;10808;48.010;11.326;2023-07-30T10:04:12;26.80;94.60
21298;DHT22;10808;48.010;11.326;2023-07-30T10:06:43;26.70;94.70
21298;DHT22;10808;48.010;11.326;2023-07-30T10:09:12;26.60;94.30
21298;DHT22;10808;48.010;11.326;2023-07-30T10:11:39;26.70;94.90
21298;DHT22;10808;48.010;11.326;2023-07-30T10:14:07;27.00;95.20
21298;DHT22;10808;48.010;11.326;2023-07-30T10:16:34;27.20;96.40
21298;DHT22;10808;48.010;11.326;2023-07-30T10:19:00;27.30;96.40
21298;DHT22;10808;48.010;11.326;2023-07-30T10:21:27;27.40;95.60
21298;DHT22;10808;48.010;11.326;2023-07-30T10:24:03;27.20;93.20
21298;DHT22;10808;48.010;11.326;2023-07-30T10:26:33;27.40;93.80
21298;DHT22;10808;48.010;11.326;2023-07-30T10:29:17;27.40;92.40
21298;DHT22;10808;48.010;11.326;2023-07-30T10:31:55;27.30;92.40
21298;DHT22;10808;48.010;11.326;2023-07-30T10:34:26;27.20;93.20
21298;DHT22;10808;48.010;11.326;2023-07-30T10:36:55;27.50;92.60
21298;DHT22;10808;48.010;11.326;2023-07-30T10:39:26;27.50;92.60
21298;DHT22;10808;48.010;11.326;2023-07-30T10:41:57;27.40;91.80
21298;DHT22;10808;48.010;11.326;2023-07-30T10:44:32;27.30;92.20
21298;DHT22;10808;48.010;11.326;2023-07-30T10:47:00;27.40;92.30
21298;DHT22;10808;48.010;11.326;2023-07-30T10:49:27;27.60;91.50
21298;DHT22;10808;48.010;11.326;2023-07-30T10:51:55;27.50;91.40
21298;DHT22;10808;48.010;11.326;2023-07-30T10:54:23;27.40;91.90
21298;DHT22;10808;48.010;11.326;2023-07-30T10:56:49;27.40;91.50
21298;DHT22;10808;48.010;11.326;2023-07-30T10:59:17;27.40;91.80
21298;DHT22;10808;48.010;11.326;2023-07-30T11:01:44;27.40;91.50
21298;DHT22;10808;48.010;11.326;2023-07-30T11:04:15;27.40;91.70
21298;DHT22;10808;48.010;11.326;2023-07-30T11:06:46;27.30;91.70
21298;DHT22;10808;48.010;11.326;2023-07-30T11:09:20;27.40;91.90
21298;DHT22;10808;48.010;11.326;2023-07-30T11:11:47;27.40;91.80
21298;DHT22;10808;48.010;11.326;2023-07-30T11:14:21;27.40;92.30
21298;DHT22;10808;48.010;11.326;2023-07-30T11:17:07;27.10;91.90
21298;DHT22;10808;48.010;11.326;2023-07-30T11:19:33;27.20;92.20
21298;DHT22;10808;48.010;11.326;2023-07-30T11:22:00;27.10;92.50
21298;DHT22;10808;48.010;11.326;2023-07-30T11:24:36;27.10;92.30
21298;DHT22;10808;48.010;11.326;2023-07-30T11:27:04;27.40;92.40
21298;DHT22;10808;48.010;11.326;2023-07-30T11:29:30;27.80;92.20
21298;DHT22;10808;48.010;11.326;2023-07-30T11:31:58;27.90;92.20
21298;DHT22;10808;48.010;11.326;2023-07-30T11:34:26;27.80;91.30
21298;DHT22;10808;48.010;11.326;2023-07-30T11:36:53;27.90;91.40
21298;DHT22;10808;48.010;11.326;2023-07-30T11:39:20;27.70;90.90
21298;DHT22;10808;48.010;11.326;2023-07-30T11:41:46;27.40;90.80
21298;DHT22;10808;48.010;11.326;2023-07-30T11:44:31;27.00;91.30
21298;DHT22;10808;48.010;11.326;2023-07-30T11:46:58;26.70;91.70
21298;DHT22;10808;48.010;11.326;2023-07-30T11:49:24;26.70;91.90
21298;DHT22;10808;48.010;11.326;2023-07-30T11:51:50;26.70;92.20
21298;DHT22;10808;48.010;11.326;2023-07-30T11:54:21;26.80;92.00
21298;DHT22;10808;48.010;11.326;2023-07-30T11:56:55;26.90;91.30
21298;DHT22;10808;48.010;11.326;2023-07-30T11:59:22;27.00;90.10
21298;DHT22;10808;48.010;11.326;2023-07-30T12:01:48;26.90;90.30
21298;DHT22;10808;48.010;11.326;2023-07-30T12:04:14;26.90;88.80
21298;DHT22;10808;48.010;11.326;2023-07-30T12:06:49;26.90;89.80
21298;DHT22;10808;48.010;11.326;2023-07-30T12:09:23;26.80;88.00
21298;DHT22;10808;48.010;11.326;2023-07-30T12:11:56;26.80;88.60
21298;DHT22;10808;48.010;11.326;2023-07-30T12:14:25;26.70;88.10
21298;DHT22;10808;48.010;11.326;2023-07-30T12:17:00;26.60;87.80
21298;DHT22;10808;48.010;11.326;2023-07-30T12:19:26;26.60;88.50
21298;DHT22;10808;48.010;11.326;2023-07-30T12:21:52;26.90;88.60
21298;DHT22;10808;48.010;11.326;2023-07-30T12:24:18;27.20;87.50
21298;DHT22;10808;48.010;11.326;2023-07-30T12:26:46;27.50;87.30
21298;DHT22;10808;48.010;11.326;2023-07-30T12:29:13;27.70;85.70
21298;DHT22;10808;48.010;11.326;2023-07-30T12:31:39;27.80;85.90
21298;DHT22;10808;48.010;11.326;2023-07-30T12:34:05;27.70;85.20
21298;DHT22;10808;48.010;11.326;2023-07-30T12:36:31;27.50;85.40
21298;DHT22;10808;48.010;11.326;2023-07-30T12:38:57;27.30;85.70
21298;DHT22;10808;48.010;11.326;2023-07-30T12:41:23;27.00;86.40
21298;DHT22;10808;48.010;11.326;2023-07-30T12:43:52;26.80;87.20
21298;DHT22;10808;48.010;11.326;2023-07-30T12:46:19;26.60;88.50
21298;DHT22;10808;48.010;11.326;2023-07-30T12:48:45;26.80;88.10
21298;DHT22;10808;48.010;11.326;2023-07-30T12:51:11;27.10;88.30
21298;DHT22;10808;48.010;11.326;2023-07-30T12:53:37;27.30;88.30
21298;DHT22;10808;48.010;11.326;2023-07-30T12:56:03;27.60;86.30
21298;DHT22;10808;48.010;11.326;2023-07-30T12:58:31;27.90;86.80
21298;DHT22;10808;48.010;11.326;2023-07-30T13:00:57;28.10;84.10
21298;DHT22;10808;48.010;11.326;2023-07-30T13:03:23;28.20;83.40
21298;DHT22;10808;48.010;11.326;2023-07-30T13:05:49;28.30;83.50
21298;DHT22;10808;48.010;11.326;2023-07-30T13:08:15;28.40;83.00
21298;DHT22;10808;48.010;11.326;2023-07-30T13:10:42;28.40;82.70
21298;DHT22;10808;48.010;11.326;2023-07-30T13:13:08;28.50;83.20
21298;DHT22;10808;48.010;11.326;2023-07-30T13:15:34;28.60;83.30
21298;DHT22;10808;48.010;11.326;2023-07-30T13:18:00;28.60;82.40
21298;DHT22;10808;48.010;11.326;2023-07-30T13:20:26;28.70;81.80
21298;DHT22;10808;48.010;11.326;2023-07-30T13:22:52;28.60;80.70
21298;DHT22;10808;48.010;11.326;2023-07-30T13:25:19;28.60;80.80
21298;DHT22;10808;48.010;11.326;2023-07-30T13:27:46;28.70;82.00
21298;DHT22;10808;48.010;11.326;2023-07-30T13:30:12;28.80;82.30
21298;DHT22;10808;48.010;11.326;2023-07-30T13:32:38;28.90;82.00
21298;DHT22;10808;48.010;11.326;2023-07-30T13:35:04;28.90;83.00
21298;DHT22;10808;48.010;11.326;2023-07-30T13:37:30;29.10;82.10
21298;DHT22;10808;48.010;11.326;2023-07-30T13:39:56;29.30;81.30
21298;DHT22;10808;48.010;11.326;2023-07-30T13:42:22;29.30;82.00
21298;DHT22;10808;48.010;11.326;2023-07-30T13:44:48;29.20;81.10
21298;DHT22;10808;48.010;11.326;2023-07-30T13:47:14;28.90;84.70
21298;DHT22;10808;48.010;11.326;2023-07-30T13:49:40;28.40;89.30
21298;DHT22;10808;48.010;11.326;2023-07-30T13:52:06;28.10;90.90
21298;DHT22;10808;48.010;11.326;2023-07-30T13:54:33;28.00;91.60
21298;DHT22;10808;48.010;11.326;2023-07-30T13:56:59;27.80;91.30
21298;DHT22;10808;48.010;11.326;2023-07-30T13:59:25;27.40;91.90
21298;DHT22;10808;48.010;11.326;2023-07-30T14:01:51;27.10;92.10
21298;DHT22;10808;48.010;11.326;2023-07-30T14:04:17;27.10;93.00
21298;DHT22;10808;48.010;11.326;2023-07-30T14:06:43;27.60;92.50
21298;DHT22;10808;48.010;11.326;2023-07-30T14:09:10;28.00;92.70
21298;DHT22;10808;48.010;11.326;2023-07-30T14:11:36;28.30;91.90
21298;DHT22;10808;48.010;11.326;2023-07-30T14:14:03;28.50;91.40
21298;DHT22;10808;48.010;11.326;2023-07-30T14:16:30;28.80;91.20
21298;DHT22;10808;48.010;11.326;2023-07-30T14:18:56;29.10;88.70
21298;DHT22;10808;48.010;11.326;2023-07-30T14:21:22;29.20;86.60
21298;DHT22;10808;48.010;11.326;2023-07-30T14:23:48;29.20;81.20
21298;DHT22;10808;48.010;11.326;2023-07-30T14:26:14;29.30;83.20
21298;DHT22;10808;48.010;11.326;2023-07-30T14:28:40;29.50;84.50
21298;DHT22;10808;48.010;11.326;2023-07-30T14:31:09;29.70;78.40
21298;DHT22;10808;48.010;11.326;2023-07-30T14:33:35;29.60;73.50
21298;DHT22;10808;48.010;11.326;2023-07-30T14:36:02;29.70;78.50
21298;DHT22;10808;48.010;11.326;2023-07-30T14:38:29;29.60;85.80
21298;DHT22;10808;48.010;11.326;2023-07-30T14:40:57;29.40;75.80
21298;DHT22;10808;48.010;11.326;2023-07-30T14:43:23;29.20;71.50
21298;DHT22;10808;48.010;11.326;2023-07-30T14:45:49;29.30;71.60
21298;DHT22;10808;48.010;11.326;2023-07-30T14:48:15;29.30;69.20
21298;DHT22;10808;48.010;11.326;2023-07-30T14:50:42;29.30;66.90
21298;DHT22;10808;48.010;11.326;2023-07-30T14:53:08;29.30;66.20
21298;DHT22;10808;48.010;11.326;2023-07-30T14:55:34;29.20;65.80
21298;DHT22;10808;48.010;11.326;2023-07-30T14:58:00;29.20;66.30
21298;DHT22;10808;48.010;11.326;2023-07-30T15:00:34;29.10;65.40
21298;DHT22;10808;48.010;11.326;2023-07-30T15:03:01;28.90;65.30
21298;DHT22;10808;48.010;11.326;2023-07-30T15:05:27;28.90;66.50
21298;DHT22;10808;48.010;11.326;2023-07-30T15:07:53;28.70;66.80
21298;DHT22;10808;48.010;11.326;2023-07-30T15:10:19;28.60;67.40
21298;DHT22;10808;48.010;11.326;2023-07-30T15:12:46;28.60;68.30